sensor_id;sensor_type;location;lat;lon;timestamp;temperature;humidity
10536;DHT22;5316;49.538;8.352;2023-04-08T00:02:19;8.30;99.90
10536;DHT22;5316;49.538;8.352;2023-04-08T00:04:53;8.40;99.90
10536;DHT22;5316;49.538;8.352;2023-04-08T00:07:28;8.30;99.90
10536;DHT22;5316;49.538;8.352;2023-04-08T00:10:13;8.50;99.90
10536;DHT22;5316;49.538;8.352;2023-04-08T00:12:48;8.40;99.90
10536;DHT22;5316;49.538;8.352;2023-04-08T00:15:24;8.50;99.90
10536;DHT22;5316;49.538;8.352;2023-04-08T00:18:06;8.40;99.90
10536;DHT22;5316;49.538;8.352;2023-04-08T00:20:44;8.50;99.90
10536;DHT22;5316;49.538;8.352;2023-04-08T00:23:15;8.50;99.90
10536;DHT22;5316;49.538;8.352;2023-04-08T00:25:54;8.50;99.90
10536;DHT22;5316;49.538;8.352;2023-04-08T00:28:31;8.50;99.90
10536;DHT22;5316;49.538;8.352;2023-04-08T00:31:03;8.50;99.90
10536;DHT22;5316;49.538;8.352;2023-04-08T00:33:32;8.60;99.90
10536;DHT22;5316;49.538;8.352;2023-04-08T00:36:09;8.60;99.90
10536;DHT22;5316;49.538;8.352;2023-04-08T00:38:43;8.60;99.90
10536;DHT22;5316;49.538;8.352;2023-04-08T00:41:23;8.50;99.90
10536;DHT22;5316;49.538;8.352;2023-04-08T00:43:51;8.50;99.90
10536;DHT22;5316;49.538;8.352;2023-04-08T00:46:20;8.50;99.90
10536;DHT22;5316;49.538;8.352;2023-04-08T00:48:48;8.50;99.90
10536;DHT22;5316;49.538;8.352;2023-04-08T00:51:15;8.50;99.90
10536;DHT22;5316;49.538;8.352;2023-04-08T00:53:43;8.40;99.90
10536;DHT22;5316;49.538;8.352;2023-04-08T00:56:12;8.50;99.90
10536;DHT22;5316;49.538;8.352;2023-04-08T00:58:39;8.50;99.90
10536;DHT22;5316;49.538;8.352;2023-04-08T01:01:11;8.40;99.90
10536;DHT22;5316;49.538;8.352;2023-04-08T01:03:47;8.50;99.90
10536;DHT22;5316;49.538;8.352;2023-04-08T01:06:22;8.50;99.90
10536;DHT22;5316;49.538;8.352;2023-04-08T01:08:54;8.60;99.90
10536;DHT22;5316;49.538;8.352;2023-04-08T01:11:24;8.60;99.90
10536;DHT22;5316;49.538;8.352;2023-04-08T01:13:56;8.60;99.90
10536;DHT22;5316;49.538;8.352;2023-04-08T01:16:24;8.60;99.90
10536;DHT22;5316;49.538;8.352;2023-04-08T01:18:54;8.60;99.90
10536;DHT22;5316;49.538;8.352;2023-04-08T01:21:22;8.60;99.90
10536;DHT22;5316;49.538;8.352;2023-04-08T01:23:56;8.60;99.90
10536;DHT22;5316;49.538;8.352;2023-04-08T01:26:26;8.60;99.90
10536;DHT22;5316;49.538;8.352;2023-04-08T01:28:57;8.50;99.90
10536;DHT22;5316;49.538;8.352;2023-04-08T01:31:30;8.50;99.90
10536;DHT22;5316;49.538;8.352;2023-04-08T01:33:59;8.50;99.90
10536;DHT22;5316;49.538;8.352;2023-04-08T01:36:28;8.50;99.90
10536;DHT22;5316;49.538;8.352;2023-04-08T01:39:00;8.50;99.90
10536;DHT22;5316;49.538;8.352;2023-04-08T01:41:33;8.40;99.90
10536;DHT22;5316;49.538;8.352;2023-04-08T01:44:03;8.40;99.90
10536;DHT22;5316;49.538;8.352;2023-04-08T01:46:31;8.40;99.90
10536;DHT22;5316;49.538;8.352;2023-04-08T01:49:15;8.40;99.90
10536;DHT22;5316;49.538;8.352;2023-04-08T01:51:44;8.40;99.90
10536;DHT22;5316;49.538;8.352;2023-04-08T01:54:12;8.40;99.90
10536;DHT22;5316;49.538;8.352;2023-04-08T01:56:41;8.30;99.90
10536;DHT22;5316;49.538;8.352;2023-04-08T01:59:13;8.30;99.90
10536;DHT22;5316;49.538;8.352;2023-04-08T02:01:43;8.30;99.90
10536;DHT22;5316;49.538;8.352;2023-04-08T02:04:12;8.30;99.90
10536;DHT22;5316;49.538;8.352;2023-04-08T02:06:39;8.30;99.90
10536;DHT22;5316;49.538;8.352;2023-04-08T02:09:06;8.30;99.90
10536;DHT22;5316;49.538;8.352;2023-04-08T02:14:15;8.40;99.90
10536;DHT22;5316;49.538;8.352;2023-04-08T02:16:47;8.40;99.90
10536;DHT22;5316;49.538;8.352;2023-04-08T02:19:24;8.40;99.90
10536;DHT22;5316;49.538;8.352;2023-04-08T02:22:05;8.40;99.90
10536;DHT22;5316;49.538;8.352;2023-04-08T02:24:37;8.40;99.90
10536;DHT22;5316;49.538;8.352;2023-04-08T02:27:06;8.30;99.90
10536;DHT22;5316;49.538;8.352;2023-04-08T02:29:39;8.40;99.90
10536;DHT22;5316;49.538;8.352;2023-04-08T02:32:09;8.40;99.90
10536;DHT22;5316;49.538;8.352;2023-04-08T02:34:39;8.40;99.90
10536;DHT22;5316;49.538;8.352;2023-04-08T02:37:06;8.40;99.90
10536;DHT22;5316;49.538;8.352;2023-04-08T02:39:58;8.40;99.90
10536;DHT22;5316;49.538;8.352;2023-04-08T02:42:26;8.50;99.90
10536;DHT22;5316;49.538;8.352;2023-04-08T02:44:56;8.50;99.90
10536;DHT22;5316;49.538;8.352;2023-04-08T02:47:23;8.50;99.90
10536;DHT22;5316;49.538;8.352;2023-04-08T02:49:57;8.50;99.90
10536;DHT22;5316;49.538;8.352;2023-04-08T02:52:24;8.50;99.90
10536;DHT22;5316;49.538;8.352;2023-04-08T02:54:52;8.50;99.90
10536;DHT22;5316;49.538;8.352;2023-04-08T02:57:19;8.50;99.90
10536;DHT22;5316;49.538;8.352;2023-04-08T02:59:46;8.50;99.90
10536;DHT22;5316;49.538;8.352;2023-04-08T03:02:16;8.50;99.90
10536;DHT22;5316;49.538;8.352;2023-04-08T03:04:44;8.50;99.90
10536;DHT22;5316;49.538;8.352;2023-04-08T03:07:12;8.50;99.90
10536;DHT22;5316;49.538;8.352;2023-04-08T03:09:39;8.50;99.90
10536;DHT22;5316;49.538;8.352;2023-04-08T03:12:07;8.50;99.90
10536;DHT22;5316;49.538;8.352;2023-04-08T03:14:34;8.50;99.90
10536;DHT22;5316;49.538;8.352;2023-04-08T03:17:01;8.50;99.90
10536;DHT22;5316;49.538;8.352;2023-04-08T03:19:29;8.40;99.90
10536;DHT22;5316;49.538;8.352;2023-04-08T03:21:57;8.40;99.90
10536;DHT22;5316;49.538;8.352;2023-04-08T03:24:24;8.40;99.90
10536;DHT22;5316;49.538;8.352;2023-04-08T03:26:51;8.40;99.90
10536;DHT22;5316;49.538;8.352;2023-04-08T03:29:21;8.50;99.90
10536;DHT22;5316;49.538;8.352;2023-04-08T03:31:48;8.40;99.90
10536;DHT22;5316;49.538;8.352;2023-04-08T03:34:15;8.40;99.90
10536;DHT22;5316;49.538;8.352;2023-04-08T03:36:44;8.50;99.90
10536;DHT22;5316;49.538;8.352;2023-04-08T03:39:14;8.50;99.90
10536;DHT22;5316;49.538;8.352;2023-04-08T03:41:41;8.50;99.90
10536;DHT22;5316;49.538;8.352;2023-04-08T03:44:08;8.50;99.90
10536;DHT22;5316;49.538;8.352;2023-04-08T03:46:37;8.50;99.90
10536;DHT22;5316;49.538;8.352;2023-04-08T03:49:04;8.50;99.90
10536;DHT22;5316;49.538;8.352;2023-04-08T03:51:31;8.50;99.90
10536;DHT22;5316;49.538;8.352;2023-04-08T03:53:59;8.50;99.90
10536;DHT22;5316;49.538;8.352;2023-04-08T03:56:26;8.50;99.90
10536;DHT22;5316;49.538;8.352;2023-04-08T03:58:53;8.50;99.90
10536;DHT22;5316;49.538;8.352;2023-04-08T04:01:20;8.50;99.90
10536;DHT22;5316;49.538;8.352;2023-04-08T04:03:48;8.40;99.90
10536;DHT22;5316;49.538;8.352;2023-04-08T04:06:15;8.40;99.90
10536;DHT22;5316;49.538;8.352;2023-04-08T04:08:44;8.40;99.90
10536;DHT22;5316;49.538;8.352;2023-04-08T04:11:13;8.50;99.90
10536;DHT22;5316;49.538;8.352;2023-04-08T04:13:43;8.50;99.90
10536;DHT22;5316;49.538;8.352;2023-04-08T04:16:10;8.50;99.90
10536;DHT22;5316;49.538;8.352;2023-04-08T04:18:41;8.60;99.90
10536;DHT22;5316;49.538;8.352;2023-04-08T04:21:14;8.50;99.90
10536;DHT22;5316;49.538;8.352;2023-04-08T04:26:21;8.40;99.90
10536;DHT22;5316;49.538;8.352;2023-04-08T04:28:50;8.40;99.90
10536;DHT22;5316;49.538;8.352;2023-04-08T04:31:18;8.50;99.90
10536;DHT22;5316;49.538;8.352;2023-04-08T04:38:50;8.40;99.90
10536;DHT22;5316;49.538;8.352;2023-04-08T04:41:34;8.40;99.90
10536;DHT22;5316;49.538;8.352;2023-04-08T04:44:35;8.40;99.90
10536;DHT22;5316;49.538;8.352;2023-04-08T04:47:03;8.40;99.90
10536;DHT22;5316;49.538;8.352;2023-04-08T04:49:31;8.50;99.90
10536;DHT22;5316;49.538;8.352;2023-04-08T04:52:19;8.40;99.90
10536;DHT22;5316;49.538;8.352;2023-04-08T04:57:28;8.40;99.90
10536;DHT22;5316;49.538;8.352;2023-04-08T04:57:42;8.40;99.90
10536;DHT22;5316;49.538;8.352;2023-04-08T05:00:10;8.40;99.90
10536;DHT22;5316;49.538;8.352;2023-04-08T05:02:49;8.40;99.90
10536;DHT22;5316;49.538;8.352;2023-04-08T05:05:22;8.30;99.90
10536;DHT22;5316;49.538;8.352;2023-04-08T05:08:07;8.40;99.90
10536;DHT22;5316;49.538;8.352;2023-04-08T05:10:41;8.40;99.90
10536;DHT22;5316;49.538;8.352;2023-04-08T05:13:30;8.40;99.90
10536;DHT22;5316;49.538;8.352;2023-04-08T05:16:35;8.40;99.90
10536;DHT22;5316;49.538;8.352;2023-04-08T05:20:21;8.40;99.90
10536;DHT22;5316;49.538;8.352;2023-04-08T05:22:55;8.40;99.90
10536;DHT22;5316;49.538;8.352;2023-04-08T05:25:33;8.40;99.90
10536;DHT22;5316;49.538;8.352;2023-04-08T05:28:02;8.30;99.90
10536;DHT22;5316;49.538;8.352;2023-04-08T05:30:30;8.40;99.90
10536;DHT22;5316;49.538;8.352;2023-04-08T05:32:59;8.30;99.90
10536;DHT22;5316;49.538;8.352;2023-04-08T05:35:27;8.40;99.90
10536;DHT22;5316;49.538;8.352;2023-04-08T05:38:25;8.40;99.90
10536;DHT22;5316;49.538;8.352;2023-04-08T05:40:55;8.40;99.90
10536;DHT22;5316;49.538;8.352;2023-04-08T05:46:40;8.40;99.90
10536;DHT22;5316;49.538;8.352;2023-04-08T05:49:24;8.50;99.90
10536;DHT22;5316;49.538;8.352;2023-04-08T05:52:26;8.50;99.90
10536;DHT22;5316;49.538;8.352;2023-04-08T05:55:37;8.50;99.90
10536;DHT22;5316;49.538;8.352;2023-04-08T05:58:14;8.50;99.90
10536;DHT22;5316;49.538;8.352;2023-04-08T06:00:44;8.60;99.90
10536;DHT22;5316;49.538;8.352;2023-04-08T06:03:44;8.60;99.90
10536;DHT22;5316;49.538;8.352;2023-04-08T06:07:07;8.60;99.90
10536;DHT22;5316;49.538;8.352;2023-04-08T06:09:51;8.60;99.90
10536;DHT22;5316;49.538;8.352;2023-04-08T06:12:30;8.80;99.90
10536;DHT22;5316;49.538;8.352;2023-04-08T06:15:20;8.70;99.90
10536;DHT22;5316;49.538;8.352;2023-04-08T06:18:01;8.70;99.90
10536;DHT22;5316;49.538;8.352;2023-04-08T06:20:54;8.70;99.90
10536;DHT22;5316;49.538;8.352;2023-04-08T06:23:23;8.60;99.90
10536;DHT22;5316;49.538;8.352;2023-04-08T06:26:02;8.60;99.90
10536;DHT22;5316;49.538;8.352;2023-04-08T06:28:43;8.60;99.90
10536;DHT22;5316;49.538;8.352;2023-04-08T06:31:26;8.50;99.90
10536;DHT22;5316;49.538;8.352;2023-04-08T06:34:14;8.50;99.90
10536;DHT22;5316;49.538;8.352;2023-04-08T06:37:05;8.40;99.90
10536;DHT22;5316;49.538;8.352;2023-04-08T06:39:34;8.40;99.90
10536;DHT22;5316;49.538;8.352;2023-04-08T06:42:26;8.40;99.90
10536;DHT22;5316;49.538;8.352;2023-04-08T06:45:41;8.40;99.90
10536;DHT22;5316;49.538;8.352;2023-04-08T06:48:14;8.40;99.90
10536;DHT22;5316;49.538;8.352;2023-04-08T06:50:59;8.40;99.90
10536;DHT22;5316;49.538;8.352;2023-04-08T06:58:51;8.50;99.90
10536;DHT22;5316;49.538;8.352;2023-04-08T07:07:54;8.80;99.90
10536;DHT22;5316;49.538;8.352;2023-04-08T07:13:22;8.90;99.90
10536;DHT22;5316;49.538;8.352;2023-04-08T07:15:57;9.00;99.90
10536;DHT22;5316;49.538;8.352;2023-04-08T07:18:44;9.00;99.90
10536;DHT22;5316;49.538;8.352;2023-04-08T07:21:33;9.10;99.90
10536;DHT22;5316;49.538;8.352;2023-04-08T07:24:05;9.00;99.90
10536;DHT22;5316;49.538;8.352;2023-04-08T07:26:42;9.00;99.90
10536;DHT22;5316;49.538;8.352;2023-04-08T07:29:32;9.10;99.90
10536;DHT22;5316;49.538;8.352;2023-04-08T07:32:06;9.00;99.90
10536;DHT22;5316;49.538;8.352;2023-04-08T07:35:11;9.00;99.90
10536;DHT22;5316;49.538;8.352;2023-04-08T07:44:17;9.10;99.90
10536;DHT22;5316;49.538;8.352;2023-04-08T07:47:00;9.20;99.90
10536;DHT22;5316;49.538;8.352;2023-04-08T07:53:16;9.20;99.90
10536;DHT22;5316;49.538;8.352;2023-04-08T07:56:49;9.20;99.90
10536;DHT22;5316;49.538;8.352;2023-04-08T07:59:50;9.20;99.90
10536;DHT22;5316;49.538;8.352;2023-04-08T08:02:46;9.20;99.90
10536;DHT22;5316;49.538;8.352;2023-04-08T08:08:26;9.20;99.90
10536;DHT22;5316;49.538;8.352;2023-04-08T08:14:35;9.30;99.90
10536;DHT22;5316;49.538;8.352;2023-04-08T08:17:12;9.40;99.90
10536;DHT22;5316;49.538;8.352;2023-04-08T08:20:02;9.40;99.90
10536;DHT22;5316;49.538;8.352;2023-04-08T08:22:35;9.40;99.90
10536;DHT22;5316;49.538;8.352;2023-04-08T08:25:12;9.40;99.90
10536;DHT22;5316;49.538;8.352;2023-04-08T08:27:54;9.40;99.90
10536;DHT22;5316;49.538;8.352;2023-04-08T08:30:32;9.40;99.90
10536;DHT22;5316;49.538;8.352;2023-04-08T09:16:10;11.30;1.00
10536;DHT22;5316;49.538;8.352;2023-04-08T09:18:48;11.40;1.00
10536;DHT22;5316;49.538;8.352;2023-04-08T09:22:09;11.40;1.00
10536;DHT22;5316;49.538;8.352;2023-04-08T09:28:32;11.40;1.00
10536;DHT22;5316;49.538;8.352;2023-04-08T09:35:08;11.60;1.00
10536;DHT22;5316;49.538;8.352;2023-04-08T09:41:28;11.60;1.00
10536;DHT22;5316;49.538;8.352;2023-04-08T09:55:12;12.20;1.00
10536;DHT22;5316;49.538;8.352;2023-04-08T09:58:24;12.20;1.00
10536;DHT22;5316;49.538;8.352;2023-04-08T10:08:47;12.50;1.00
10536;DHT22;5316;49.538;8.352;2023-04-08T10:45:56;12.70;1.00
10536;DHT22;5316;49.538;8.352;2023-04-08T10:49:36;12.70;1.00
10536;DHT22;5316;49.538;8.352;2023-04-08T11:06:49;12.70;1.00
10536;DHT22;5316;49.538;8.352;2023-04-08T11:13:41;12.80;1.00
10536;DHT22;5316;49.538;8.352;2023-04-08T11:34:17;13.50;1.00
10536;DHT22;5316;49.538;8.352;2023-04-08T11:39:11;13.50;1.00
10536;DHT22;5316;49.538;8.352;2023-04-08T11:55:42;13.10;1.00
10536;DHT22;5316;49.538;8.352;2023-04-08T11:59:01;13.00;1.00
10536;DHT22;5316;49.538;8.352;2023-04-08T12:05:40;13.20;1.00
10536;DHT22;5316;49.538;8.352;2023-04-08T12:11:29;13.40;1.00
10536;DHT22;5316;49.538;8.352;2023-04-08T12:18:46;13.50;1.00
10536;DHT22;5316;49.538;8.352;2023-04-08T12:50:10;13.90;1.00
10536;DHT22;5316;49.538;8.352;2023-04-08T12:56:45;14.00;1.00
10536;DHT22;5316;49.538;8.352;2023-04-08T13:10:09;14.00;1.00
10536;DHT22;5316;49.538;8.352;2023-04-08T13:35:42;15.60;1.00
10536;DHT22;5316;49.538;8.352;2023-04-08T14:52:25;15.90;1.00
10536;DHT22;5316;49.538;8.352;2023-04-08T14:55:47;16.10;1.00
10536;DHT22;5316;49.538;8.352;2023-04-08T14:58:50;16.50;1.00
10536;DHT22;5316;49.538;8.352;2023-04-08T15:01:17;16.60;1.00
10536;DHT22;5316;49.538;8.352;2023-04-08T15:03:50;16.60;1.00
10536;DHT22;5316;49.538;8.352;2023-04-08T15:06:20;16.40;1.00
10536;DHT22;5316;49.538;8.352;2023-04-08T15:12:09;15.80;1.00
10536;DHT22;5316;49.538;8.352;2023-04-08T15:14:36;15.30;1.00
10536;DHT22;5316;49.538;8.352;2023-04-08T15:17:03;15.20;1.00
10536;DHT22;5316;49.538;8.352;2023-04-08T15:19:30;15.10;1.00
10536;DHT22;5316;49.538;8.352;2023-04-08T15:21:57;15.00;1.00
10536;DHT22;5316;49.538;8.352;2023-04-08T15:24:24;15.00;1.00
10536;DHT22;5316;49.538;8.352;2023-04-08T15:26:56;14.90;1.00
10536;DHT22;5316;49.538;8.352;2023-04-08T15:29:24;14.80;1.00
10536;DHT22;5316;49.538;8.352;2023-04-08T15:31:51;14.70;1.00
10536;DHT22;5316;49.538;8.352;2023-04-08T15:34:18;14.50;1.00
10536;DHT22;5316;49.538;8.352;2023-04-08T15:36:45;14.40;1.00
10536;DHT22;5316;49.538;8.352;2023-04-08T15:39:12;14.30;1.00
10536;DHT22;5316;49.538;8.352;2023-04-08T15:41:39;14.30;1.00
10536;DHT22;5316;49.538;8.352;2023-04-08T15:44:07;14.30;1.00
10536;DHT22;5316;49.538;8.352;2023-04-08T15:46:36;14.20;1.00
10536;DHT22;5316;49.538;8.352;2023-04-08T15:49:04;14.20;1.00
10536;DHT22;5316;49.538;8.352;2023-04-08T15:51:32;14.20;1.00
10536;DHT22;5316;49.538;8.352;2023-04-08T15:54:01;14.10;1.00
10536;DHT22;5316;49.538;8.352;2023-04-08T15:56:30;13.90;1.00
10536;DHT22;5316;49.538;8.352;2023-04-08T15:58:58;13.80;1.00
10536;DHT22;5316;49.538;8.352;2023-04-08T16:01:32;13.80;1.00
10536;DHT22;5316;49.538;8.352;2023-04-08T16:04:03;13.80;1.00
10536;DHT22;5316;49.538;8.352;2023-04-08T16:06:30;13.60;1.00
10536;DHT22;5316;49.538;8.352;2023-04-08T16:08:58;13.60;1.00
10536;DHT22;5316;49.538;8.352;2023-04-08T16:11:27;13.60;1.00
10536;DHT22;5316;49.538;8.352;2023-04-08T16:13:54;13.70;1.00
10536;DHT22;5316;49.538;8.352;2023-04-08T16:16:21;13.70;1.00
10536;DHT22;5316;49.538;8.352;2023-04-08T16:18:48;13.70;1.00
10536;DHT22;5316;49.538;8.352;2023-04-08T16:21:18;13.60;1.00
10536;DHT22;5316;49.538;8.352;2023-04-08T16:23:45;13.60;1.00
10536;DHT22;5316;49.538;8.352;2023-04-08T16:26:13;13.60;1.00
10536;DHT22;5316;49.538;8.352;2023-04-08T16:28:40;13.70;1.00
10536;DHT22;5316;49.538;8.352;2023-04-08T16:31:08;13.70;1.00
10536;DHT22;5316;49.538;8.352;2023-04-08T16:33:35;13.70;1.00
10536;DHT22;5316;49.538;8.352;2023-04-08T16:36:05;13.70;1.00
10536;DHT22;5316;49.538;8.352;2023-04-08T16:38:33;13.70;1.00
10536;DHT22;5316;49.538;8.352;2023-04-08T16:41:01;13.70;1.00
10536;DHT22;5316;49.538;8.352;2023-04-08T16:43:31;13.70;1.00
10536;DHT22;5316;49.538;8.352;2023-04-08T16:45:57;13.70;1.00
10536;DHT22;5316;49.538;8.352;2023-04-08T16:48:24;13.60;1.00
10536;DHT22;5316;49.538;8.352;2023-04-08T16:50:51;13.60;1.00
10536;DHT22;5316;49.538;8.352;2023-04-08T16:53:18;13.50;1.00
10536;DHT22;5316;49.538;8.352;2023-04-08T16:55:47;13.60;1.00
10536;DHT22;5316;49.538;8.352;2023-04-08T16:58:14;13.50;1.00
10536;DHT22;5316;49.538;8.352;2023-04-08T17:00:40;13.50;1.00
10536;DHT22;5316;49.538;8.352;2023-04-08T17:03:08;13.50;1.00
10536;DHT22;5316;49.538;8.352;2023-04-08T17:05:35;13.40;1.00
10536;DHT22;5316;49.538;8.352;2023-04-08T17:08:03;13.40;1.00
10536;DHT22;5316;49.538;8.352;2023-04-08T17:10:30;13.40;1.00
10536;DHT22;5316;49.538;8.352;2023-04-08T17:12:58;13.30;1.00
10536;DHT22;5316;49.538;8.352;2023-04-08T17:15:25;13.20;1.00
10536;DHT22;5316;49.538;8.352;2023-04-08T17:17:52;13.10;1.00
10536;DHT22;5316;49.538;8.352;2023-04-08T17:20:19;13.10;1.00
10536;DHT22;5316;49.538;8.352;2023-04-08T17:22:46;13.10;1.00
10536;DHT22;5316;49.538;8.352;2023-04-08T17:25:14;13.10;1.00
10536;DHT22;5316;49.538;8.352;2023-04-08T17:27:41;13.10;1.00
10536;DHT22;5316;49.538;8.352;2023-04-08T17:30:13;13.00;1.00
10536;DHT22;5316;49.538;8.352;2023-04-08T17:32:40;13.00;1.00
10536;DHT22;5316;49.538;8.352;2023-04-08T17:35:07;12.90;1.00
10536;DHT22;5316;49.538;8.352;2023-04-08T17:37:34;12.80;1.00
10536;DHT22;5316;49.538;8.352;2023-04-08T17:40:03;12.80;1.00
10536;DHT22;5316;49.538;8.352;2023-04-08T17:42:32;12.70;1.00
10536;DHT22;5316;49.538;8.352;2023-04-08T17:44:59;12.60;1.00
10536;DHT22;5316;49.538;8.352;2023-04-08T17:47:28;12.60;1.00
10536;DHT22;5316;49.538;8.352;2023-04-08T17:49:55;12.50;1.00
10536;DHT22;5316;49.538;8.352;2023-04-08T17:52:23;12.60;1.00
10536;DHT22;5316;49.538;8.352;2023-04-08T17:54:50;12.60;1.00
10536;DHT22;5316;49.538;8.352;2023-04-08T17:57:18;12.60;1.00
10536;DHT22;5316;49.538;8.352;2023-04-08T17:59:46;12.50;1.00
10536;DHT22;5316;49.538;8.352;2023-04-08T18:02:13;12.50;1.00
10536;DHT22;5316;49.538;8.352;2023-04-08T18:04:41;12.40;1.00
10536;DHT22;5316;49.538;8.352;2023-04-08T18:07:08;12.40;1.00
10536;DHT22;5316;49.538;8.352;2023-04-08T18:09:46;12.30;1.00
10536;DHT22;5316;49.538;8.352;2023-04-08T18:12:14;12.30;1.00
10536;DHT22;5316;49.538;8.352;2023-04-08T18:14:41;12.30;1.00
10536;DHT22;5316;49.538;8.352;2023-04-08T18:17:08;12.20;1.00
10536;DHT22;5316;49.538;8.352;2023-04-08T18:19:36;12.20;1.00
10536;DHT22;5316;49.538;8.352;2023-04-08T18:22:04;12.10;1.00
10536;DHT22;5316;49.538;8.352;2023-04-08T18:24:31;12.10;1.00
10536;DHT22;5316;49.538;8.352;2023-04-08T18:26:58;12.10;1.00
10536;DHT22;5316;49.538;8.352;2023-04-08T18:29:25;12.00;1.00
10536;DHT22;5316;49.538;8.352;2023-04-08T18:31:52;12.00;1.00
10536;DHT22;5316;49.538;8.352;2023-04-08T18:34:19;11.90;1.00
10536;DHT22;5316;49.538;8.352;2023-04-08T18:36:47;11.90;1.00
10536;DHT22;5316;49.538;8.352;2023-04-08T18:39:15;11.90;1.00
10536;DHT22;5316;49.538;8.352;2023-04-08T18:41:42;11.90;1.00
10536;DHT22;5316;49.538;8.352;2023-04-08T18:44:09;11.80;1.00
10536;DHT22;5316;49.538;8.352;2023-04-08T18:46:36;11.80;1.00
10536;DHT22;5316;49.538;8.352;2023-04-08T18:49:03;11.80;1.00
10536;DHT22;5316;49.538;8.352;2023-04-08T18:51:30;11.80;1.00
10536;DHT22;5316;49.538;8.352;2023-04-08T18:53:57;11.80;1.00
10536;DHT22;5316;49.538;8.352;2023-04-08T18:56:26;11.70;1.00
10536;DHT22;5316;49.538;8.352;2023-04-08T18:58:53;11.80;1.00
10536;DHT22;5316;49.538;8.352;2023-04-08T19:01:20;11.70;1.00
10536;DHT22;5316;49.538;8.352;2023-04-08T19:03:47;11.70;1.00
10536;DHT22;5316;49.538;8.352;2023-04-08T19:06:14;11.70;1.00
10536;DHT22;5316;49.538;8.352;2023-04-08T19:08:42;11.70;1.00
10536;DHT22;5316;49.538;8.352;2023-04-08T19:11:08;11.70;1.00
10536;DHT22;5316;49.538;8.352;2023-04-08T19:13:37;11.70;1.00
10536;DHT22;5316;49.538;8.352;2023-04-08T19:16:04;11.70;1.00
10536;DHT22;5316;49.538;8.352;2023-04-08T19:18:31;11.70;1.00
10536;DHT22;5316;49.538;8.352;2023-04-08T19:20:59;11.70;1.00
10536;DHT22;5316;49.538;8.352;2023-04-08T19:23:26;11.70;1.00
10536;DHT22;5316;49.538;8.352;2023-04-08T19:25:53;11.70;1.00
10536;DHT22;5316;49.538;8.352;2023-04-08T19:28:20;11.70;1.00
10536;DHT22;5316;49.538;8.352;2023-04-08T19:30:48;11.70;1.00
10536;DHT22;5316;49.538;8.352;2023-04-08T19:33:15;11.70;1.00
10536;DHT22;5316;49.538;8.352;2023-04-08T19:35:42;11.70;1.00
10536;DHT22;5316;49.538;8.352;2023-04-08T19:38:09;11.70;1.00
10536;DHT22;5316;49.538;8.352;2023-04-08T19:40:37;11.70;1.00
10536;DHT22;5316;49.538;8.352;2023-04-08T19:43:04;11.70;1.00
10536;DHT22;5316;49.538;8.352;2023-04-08T19:45:31;11.70;1.00
10536;DHT22;5316;49.538;8.352;2023-04-08T19:48:00;11.70;1.00
10536;DHT22;5316;49.538;8.352;2023-04-08T19:50:27;11.60;1.00
10536;DHT22;5316;49.538;8.352;2023-04-08T19:52:53;11.70;1.00
10536;DHT22;5316;49.538;8.352;2023-04-08T19:55:21;11.70;1.00
10536;DHT22;5316;49.538;8.352;2023-04-08T19:57:48;11.70;1.00
10536;DHT22;5316;49.538;8.352;2023-04-08T20:15:14;11.50;1.00
10536;DHT22;5316;49.538;8.352;2023-04-08T20:18:08;11.50;1.00
10536;DHT22;5316;49.538;8.352;2023-04-08T20:20:53;11.60;1.00
10536;DHT22;5316;49.538;8.352;2023-04-08T20:23:27;11.50;1.00
10536;DHT22;5316;49.538;8.352;2023-04-08T20:55:12;11.30;1.00
10536;DHT22;5316;49.538;8.352;2023-04-08T22:02:24;10.70;1.00
10536;DHT22;5316;49.538;8.352;2023-04-08T22:11:40;10.70;1.00
10536;DHT22;5316;49.538;8.352;2023-04-08T22:58:38;10.40;1.00
10536;DHT22;5316;49.538;8.352;2023-04-08T23:14:17;10.30;1.00
10536;DHT22;5316;49.538;8.352;2023-04-08T23:16:44;10.30;1.00
10536;DHT22;5316;49.538;8.352;2023-04-08T23:19:11;10.40;1.00
10536;DHT22;5316;49.538;8.352;2023-04-08T23:21:39;10.30;1.00
10536;DHT22;5316;49.538;8.352;2023-04-08T23:24:06;10.30;1.00
10536;DHT22;5316;49.538;8.352;2023-04-08T23:26:35;10.30;1.00
10536;DHT22;5316;49.538;8.352;2023-04-08T23:29:02;10.20;1.00
10536;DHT22;5316;49.538;8.352;2023-04-08T23:31:32;10.20;1.00
10536;DHT22;5316;49.538;8.352;2023-04-08T23:34:10;10.20;1.00
10536;DHT22;5316;49.538;8.352;2023-04-08T23:36:38;10.20;1.00
10536;DHT22;5316;49.538;8.352;2023-04-08T23:39:05;10.20;1.00
10536;DHT22;5316;49.538;8.352;2023-04-08T23:41:33;10.20;1.00
10536;DHT22;5316;49.538;8.352;2023-04-08T23:44:00;10.20;1.00
10536;DHT22;5316;49.538;8.352;2023-04-08T23:46:30;10.20;1.00
10536;DHT22;5316;49.538;8.352;2023-04-08T23:48:59;10.20;1.00
10536;DHT22;5316;49.538;8.352;2023-04-08T23:51:29;10.20;1.00
10536;DHT22;5316;49.538;8.352;2023-04-08T23:54:00;10.10;1.00
10536;DHT22;5316;49.538;8.352;2023-04-08T23:56:27;10.10;1.00
10536;DHT22;5316;49.538;8.352;2023-04-08T23:58:54;10.20;1.00
